CYOO

Details ICAO CYOO (YOO)
Name OSHAWA
Region Canada
Timezone America/Toronto (UTC-5.0)
Plans Departing 27
Arriving 15
Stats Elevation 459 ft / 140 m (AMSL)
Location 43.922778° -78.895833°
Runways 2
Magnetic Variation 10.861° W
Sunrise 2017-12-13 12:43:12 UTC / 2017-12-13 07:43:12 Local
Sunset 2017-12-13 21:39:25 UTC / 2017-12-13 16:39:25 Local
Advertisement - Login to hide

Runways

ID Width Length Bearing (true) Bearing (mag) Surface Threshold Offset Overrun Length
04 100 ft / 30 m 2,676 ft / 816 m 29.41° 40.27° Asphalt 0 ft / 0 m 0 ft / 0 m
12 100 ft / 30 m 4,019 ft / 1,225 m 109.14° 120.00° Asphalt 0 ft / 0 m 0 ft / 0 m
22 100 ft / 30 m 2,676 ft / 816 m 209.41° 220.27° Asphalt 0 ft / 0 m 0 ft / 0 m
30 100 ft / 30 m 4,019 ft / 1,225 m 289.15° 300.01° Asphalt 0 ft / 0 m 0 ft / 0 m

Approach Navaids

Runway Type Ident Frequency Range Bearing (true) Bearing (mag) Slope Elevation
12 Localiser IOO 111.35 MHz 18 nm / 33 km 109.33° 120.19° - 459 ft / 140 m (AMSL)

Map

Weather


0- 5 10 15 20 25 30 35+ Temperature / ° C

Clouds and Precipitation
Forecast for 2017-12-13 12:00 UTC. Updated 2 hours ago

Ground ~20,000 ft ~40,000 ft Winds

METAR

CYOO 131300Z AUTO 32010KT 9SM CLR M15/M18 A2967 RMK SLP061

TAF

Not found

Frequencies

Recorded 125.67 MHz ATIS
Tower 120.10 MHz MF
Approach 133.40 MHz TORONTO TRML
Ground 118.40 MHz GND
Tower 120.10 MHz TWR
Warning: Do not use this data for real-world aviation or navigation. No guarantee of current accuracy is given.